AYMH/HGU METAR and TAF weather

Enter ICAO airport designator
Station Type Date Time Source
AYMH METAR 2022/12/04 05:00 UTC NOAA

AYMH 040500Z 19008KT 9999 -SHRA FEW020 BKN060 20/18 Q1016=


Station Type Date Time Source
AYMH Decoded METAR 2022/12/04 05:00 UTC NOAA

Station name not available
Dec 04, 2022 - 12:00 AM EST / 2022.12.04 0500 UTC
Wind: from the S (190 degrees) at 9 MPH (8 KT):0
Visibility: greater than 7 mile(s):0
Sky conditions: mostly cloudy
Weather: light rain showers
Temperature: 68 F (20 C)
Dew Point: 64 F (18 C)
Relative Humidity: 88%
Pressure (altimeter): 30.00 in. Hg (1016 hPa)
ob: AYMH 040500Z 19008KT 9999 -SHRA FEW020 BKN060 20/18 Q1016=
cycle: 5

Station Type Date Time Source
AYMH TAF UTC NOAA

Error!

Example: see airport list